createdAt,value
2023-03-22T00:02:12.476Z,97884.22
2023-03-22T00:04:43.518Z,97882.75
2023-03-22T00:07:13.346Z,97884.53
2023-03-22T00:09:43.007Z,97877.72
2023-03-22T00:12:14.716Z,97882.28
2023-03-22T00:14:44.257Z,97878.22
2023-03-22T00:17:14.805Z,97882.97
2023-03-22T00:19:45.694Z,97880.22
2023-03-22T00:22:16.823Z,97873.84
2023-03-22T00:24:46.354Z,97876.94
2023-03-22T00:27:16.770Z,97870.94
2023-03-22T00:29:47.406Z,97871.13
2023-03-22T00:32:17.298Z,97863.00
2023-03-22T00:34:48.165Z,97862.03
2023-03-22T00:37:22.032Z,97859.59
2023-03-22T00:39:53.516Z,97856.25
2023-03-22T00:42:25.359Z,97859.19
2023-03-22T00:44:56.026Z,97852.81
2023-03-22T00:47:25.863Z,97856.59
2023-03-22T00:49:56.427Z,97859.69
2023-03-22T00:52:26.953Z,97857.25
2023-03-22T00:54:57.034Z,97853.19
2023-03-22T00:57:28.903Z,97859.56
2023-03-22T00:59:59.026Z,97854.69
2023-03-22T01:02:30.403Z,97851.28
2023-03-22T01:05:00.955Z,97849.19
2023-03-22T01:07:31.241Z,97842.53
2023-03-22T01:10:00.987Z,97834.41
2023-03-22T01:12:32.021Z,97838.16
2023-03-22T01:15:03.151Z,97838.16
2023-03-22T01:17:33.241Z,97834.13
2023-03-22T01:20:07.056Z,97826.31
2023-03-22T01:22:37.130Z,97831.03
2023-03-22T01:25:10.433Z,97833.94
2023-03-22T01:27:42.238Z,97827.97
2023-03-22T01:30:14.717Z,97832.34
2023-03-22T01:32:44.889Z,97820.66
2023-03-22T01:35:14.902Z,97819.22
2023-03-22T01:37:43.778Z,97825.41
2023-03-22T01:40:16.238Z,97817.94
2023-03-22T01:42:47.310Z,97813.72
2023-03-22T01:45:43.860Z,97813.09
2023-03-22T01:48:28.055Z,97811.28
2023-03-22T01:51:09.332Z,97816.50
2023-03-22T01:53:44.755Z,97818.44
2023-03-22T01:56:15.654Z,97808.03
2023-03-22T01:58:46.459Z,97799.16
2023-03-22T02:01:16.772Z,97802.22
2023-03-22T02:03:52.036Z,97801.28
2023-03-22T02:06:23.894Z,97795.75
2023-03-22T02:08:58.023Z,97799.03
2023-03-22T02:11:33.701Z,97806.81
2023-03-22T02:14:29.910Z,97804.56
2023-03-22T02:17:18.016Z,97800.19
2023-03-22T02:21:05.017Z,97798.56
2023-03-22T02:24:15.548Z,97797.75
2023-03-22T02:27:20.126Z,97791.91
2023-03-22T02:30:09.776Z,97800.03
2023-03-22T02:33:18.845Z,97796.78
2023-03-22T02:36:07.250Z,97791.59
2023-03-22T02:39:12.533Z,97787.41
2023-03-22T02:42:00.061Z,97789.19
2023-03-22T02:44:42.135Z,97784.00
2023-03-22T02:47:25.018Z,97789.34
2023-03-22T02:50:04.289Z,97785.97
2023-03-22T02:52:41.940Z,97781.88
2023-03-22T02:55:26.772Z,97781.72
2023-03-22T02:58:02.265Z,97780.91
2023-03-22T03:00:35.442Z,97774.75
2023-03-22T03:03:12.972Z,97772.97
2023-03-22T03:05:48.471Z,97767.78
2023-03-22T03:08:21.588Z,97769.38
2023-03-22T03:10:54.335Z,97761.44
2023-03-22T03:13:24.855Z,97759.66
2023-03-22T03:16:00.312Z,97760.28
2023-03-22T03:18:48.951Z,97762.53
2023-03-22T03:21:33.888Z,97755.25
2023-03-22T03:24:21.344Z,97747.47
2023-03-22T03:27:04.208Z,97744.72
2023-03-22T03:29:43.815Z,97739.03
2023-03-22T03:32:26.350Z,97734.31
2023-03-22T03:35:05.994Z,97733.97
2023-03-22T03:37:41.707Z,97733.00
2023-03-22T03:40:18.990Z,97730.88
2023-03-22T03:42:54.870Z,97734.91
2023-03-22T03:45:25.580Z,97740.56
2023-03-22T03:48:00.730Z,97735.19
2023-03-22T03:50:30.743Z,97731.47
2023-03-22T03:53:00.523Z,97731.13
2023-03-22T03:55:32.402Z,97728.19
2023-03-22T03:58:04.406Z,97731.41
2023-03-22T04:00:34.858Z,97729.47
2023-03-22T04:03:05.876Z,97730.09
2023-03-22T04:05:35.256Z,97730.75
2023-03-22T04:08:06.378Z,97739.53
2023-03-22T04:10:35.994Z,97730.91
2023-03-22T04:13:06.978Z,97726.53
2023-03-22T04:15:37.510Z,97725.88
2023-03-22T04:18:09.786Z,97724.09
2023-03-22T04:20:42.278Z,97730.91
2023-03-22T04:23:12.316Z,97722.97
2023-03-22T04:25:41.927Z,97726.19
2023-03-22T04:28:14.317Z,97718.41
2023-03-22T04:30:46.435Z,97722.63
2023-03-22T04:33:15.962Z,97726.19
2023-03-22T04:35:47.334Z,97717.44
2023-03-22T04:38:18.586Z,97720.66
2023-03-22T04:40:49.030Z,97725.69
2023-03-22T04:43:20.954Z,97730.69
2023-03-22T04:45:51.036Z,97713.50
2023-03-22T04:48:22.307Z,97707.50
2023-03-22T04:50:53.872Z,97698.22
2023-03-22T04:53:28.032Z,97704.44
2023-03-22T04:55:58.484Z,97704.25
2023-03-22T04:58:30.503Z,97709.91
2023-03-22T05:01:01.059Z,97704.09
2023-03-22T05:03:30.082Z,97698.88
2023-03-22T05:06:02.271Z,97695.13
2023-03-22T05:08:33.016Z,97698.38
2023-03-22T05:11:09.939Z,97688.44
2023-03-22T05:13:42.459Z,97690.06
2023-03-22T05:16:13.976Z,97681.63
2023-03-22T05:18:45.823Z,97675.63
2023-03-22T05:21:17.263Z,97688.44
2023-03-22T05:23:49.743Z,97687.28
2023-03-22T05:26:24.361Z,97679.31
2023-03-22T05:28:56.517Z,97670.53
2023-03-22T05:31:25.281Z,97676.72
2023-03-22T05:33:55.248Z,97682.38
2023-03-22T05:36:25.671Z,97676.66
2023-03-22T05:38:55.785Z,97678.28
2023-03-22T05:41:25.430Z,97689.16
2023-03-22T05:43:57.906Z,97691.41
2023-03-22T05:46:27.766Z,97700.63
2023-03-22T05:48:58.317Z,97699.47
2023-03-22T05:51:27.794Z,97699.31
2023-03-22T05:53:58.320Z,97704.31
2023-03-22T05:56:29.145Z,97709.97
2023-03-22T05:59:00.029Z,97699.25
2023-03-22T06:01:29.850Z,97698.09
2023-03-22T06:03:59.924Z,97703.75
2023-03-22T06:06:30.010Z,97698.81
2023-03-22T06:09:15.900Z,97704.31
2023-03-22T06:11:47.673Z,97698.59
2023-03-22T06:14:19.464Z,97703.25
2023-03-22T06:16:50.175Z,97715.75
2023-03-22T06:19:22.193Z,97715.25
2023-03-22T06:21:53.436Z,97713.09
2023-03-22T06:24:23.527Z,97712.53
2023-03-22T06:26:54.259Z,97718.03
2023-03-22T06:29:26.204Z,97716.72
2023-03-22T06:31:55.750Z,97717.16
2023-03-22T06:34:26.490Z,97721.81
2023-03-22T06:36:57.202Z,97716.09
2023-03-22T06:39:27.468Z,97731.19
2023-03-22T06:41:57.777Z,97723.09
2023-03-22T06:44:29.192Z,97730.03
2023-03-22T06:46:58.970Z,97731.09
2023-03-22T06:49:28.609Z,97734.44
2023-03-22T06:51:59.025Z,97730.41
2023-03-22T06:54:29.203Z,97727.72
2023-03-22T06:56:58.670Z,97737.03
2023-03-22T06:59:31.172Z,97735.41
2023-03-22T07:02:01.782Z,97731.91
2023-03-22T07:04:31.429Z,97734.66
2023-03-22T07:07:00.874Z,97727.91
2023-03-22T07:09:30.700Z,97728.22
2023-03-22T07:12:01.160Z,97733.34
2023-03-22T07:14:32.682Z,97725.41
2023-03-22T07:17:02.423Z,97719.25
2023-03-22T07:19:31.944Z,97715.91
2023-03-22T07:22:02.113Z,97720.19
2023-03-22T07:24:32.660Z,97724.47
2023-03-22T07:27:02.148Z,97717.69
2023-03-22T07:29:32.712Z,97719.34
2023-03-22T07:32:02.140Z,97720.59
2023-03-22T07:34:31.591Z,97711.19
2023-03-22T07:37:03.527Z,97722.25
2023-03-22T07:39:33.177Z,97707.63
2023-03-22T07:42:03.275Z,97700.66
2023-03-22T07:44:35.006Z,97700.06
2023-03-22T07:47:04.579Z,97691.25
2023-03-22T07:49:35.418Z,97692.31
2023-03-22T07:52:05.404Z,97694.31
2023-03-22T07:54:35.140Z,97701.59
2023-03-22T07:57:05.991Z,97695.59
2023-03-22T07:59:39.999Z,97695.59
2023-03-22T08:02:11.638Z,97701.06
2023-03-22T08:04:41.501Z,97695.09
2023-03-22T08:07:12.197Z,97699.75
2023-03-22T08:09:41.646Z,97695.75
2023-03-22T08:12:11.040Z,97692.75
2023-03-22T08:14:42.043Z,97688.94
2023-03-22T08:17:11.362Z,97691.38
2023-03-22T08:19:42.375Z,97675.72
2023-03-22T08:22:12.879Z,97678.75
2023-03-22T08:24:42.619Z,97683.34
2023-03-22T08:27:12.903Z,97685.97
2023-03-22T08:29:44.534Z,97682.19
2023-03-22T08:32:13.601Z,97686.22
2023-03-22T08:34:44.901Z,97670.94
2023-03-22T08:37:15.214Z,97676.59
2023-03-22T08:39:46.475Z,97664.09
2023-03-22T08:42:16.463Z,97660.09
2023-03-22T08:44:48.122Z,97657.72
2023-03-22T08:47:16.946Z,97643.44
2023-03-22T08:49:45.989Z,97646.47
2023-03-22T08:52:16.527Z,97652.50
2023-03-22T08:54:45.491Z,97652.53
2023-03-22T08:57:16.564Z,97640.25
2023-03-22T08:59:48.509Z,97648.91
2023-03-22T09:02:18.428Z,97642.06
2023-03-22T09:04:49.267Z,97640.88
2023-03-22T09:07:19.488Z,97640.66
2023-03-22T09:09:48.537Z,97643.91
2023-03-22T09:12:18.512Z,97633.63
2023-03-22T09:14:50.583Z,97625.97
2023-03-22T09:17:22.454Z,97627.78
2023-03-22T09:20:02.659Z,97628.19
2023-03-22T09:22:40.136Z,97625.56
2023-03-22T09:25:13.042Z,97629.59
2023-03-22T09:27:43.379Z,97639.06
2023-03-22T09:30:15.247Z,97627.59
2023-03-22T09:32:44.749Z,97636.44
2023-03-22T09:35:14.675Z,97637.84
2023-03-22T09:37:43.167Z,97642.28
2023-03-22T09:40:15.693Z,97640.47
2023-03-22T09:42:50.129Z,97641.25
2023-03-22T09:45:30.548Z,97649.72
2023-03-22T09:48:01.741Z,97643.28
2023-03-22T09:50:34.357Z,97642.88
2023-03-22T09:53:04.566Z,97632.59
2023-03-22T09:55:43.423Z,97638.44
2023-03-22T09:58:26.693Z,97648.50
2023-03-22T10:01:04.203Z,97631.38
2023-03-22T10:04:13.124Z,97633.56
2023-03-22T10:06:51.966Z,97622.66
2023-03-22T10:09:35.247Z,97626.06
2023-03-22T10:12:16.987Z,97630.06
2023-03-22T10:14:52.728Z,97619.34
2023-03-22T10:17:31.449Z,97622.13
2023-03-22T10:20:08.513Z,97624.75
2023-03-22T10:22:45.812Z,97624.53
2023-03-22T10:25:25.764Z,97624.31
2023-03-22T10:27:57.858Z,97613.78
2023-03-22T10:30:30.229Z,97623.47
2023-03-22T10:33:04.357Z,97606.88
2023-03-22T10:35:34.747Z,97622.59
2023-03-22T10:38:11.814Z,97606.25
2023-03-22T10:40:42.808Z,97613.06
2023-03-22T10:43:25.761Z,97616.28
2023-03-22T10:45:59.046Z,97619.88
2023-03-22T10:48:35.143Z,97617.25
2023-03-22T10:51:07.382Z,97606.13
2023-03-22T10:53:40.964Z,97617.19
2023-03-22T10:56:16.261Z,97614.56
2023-03-22T10:58:46.541Z,97603.22
2023-03-22T11:01:27.213Z,97601.97
2023-03-22T11:04:02.223Z,97601.50
2023-03-22T11:06:35.405Z,97598.03
2023-03-22T11:09:15.439Z,97609.94
2023-03-22T11:11:53.826Z,97602.44
2023-03-22T11:14:37.312Z,97597.78
2023-03-22T11:17:14.194Z,97600.56
2023-03-22T11:19:56.330Z,97580.31
2023-03-22T11:22:34.116Z,97594.59
2023-03-22T11:25:05.236Z,97592.56
2023-03-22T11:27:37.761Z,97589.28
2023-03-22T11:30:23.399Z,97590.69
2023-03-22T11:33:04.495Z,97596.69
2023-03-22T11:35:38.767Z,97588.94
2023-03-22T11:38:08.348Z,97586.03
2023-03-22T11:40:42.363Z,97585.00
2023-03-22T11:43:20.859Z,97598.16
2023-03-22T11:45:56.319Z,97577.69
2023-03-22T11:48:30.506Z,97581.31
2023-03-22T11:51:11.330Z,97580.63
2023-03-22T11:53:45.456Z,97577.34
2023-03-22T11:56:20.999Z,97575.44
2023-03-22T11:59:01.269Z,97587.34
2023-03-22T12:01:40.240Z,97579.91
2023-03-22T12:04:17.871Z,97580.41
2023-03-22T12:06:51.464Z,97572.00
2023-03-22T12:09:32.933Z,97571.75
2023-03-22T12:12:06.105Z,97575.56
2023-03-22T12:14:45.429Z,97572.03
2023-03-22T12:17:24.635Z,97572.84
2023-03-22T12:20:09.434Z,97577.75
2023-03-22T12:22:46.442Z,97577.66
2023-03-22T12:25:19.615Z,97568.34
2023-03-22T12:27:54.232Z,97561.84
2023-03-22T12:30:27.593Z,97564.75
2023-03-22T12:33:04.208Z,97566.31
2023-03-22T12:35:38.110Z,97563.69
2023-03-22T12:38:30.273Z,97562.63
2023-03-22T12:41:04.432Z,97552.81
2023-03-22T12:43:54.629Z,97553.97
2023-03-22T12:46:27.890Z,97559.84
2023-03-22T12:49:04.690Z,97551.81
2023-03-22T12:51:34.271Z,97545.88
2023-03-22T12:54:07.843Z,97544.16
2023-03-22T12:56:44.534Z,97542.13
2023-03-22T12:59:22.033Z,97540.06
2023-03-22T13:02:00.027Z,97551.09
2023-03-22T13:04:47.801Z,97546.03
2023-03-22T13:07:34.888Z,97543.97
2023-03-22T13:11:03.911Z,97538.69
2023-03-22T13:13:51.494Z,97536.66
2023-03-22T13:16:43.794Z,97540.56
2023-03-22T13:19:33.122Z,97525.59
2023-03-22T13:22:30.722Z,97520.28
2023-03-22T13:25:32.024Z,97522.72
2023-03-22T13:28:04.968Z,97520.66
2023-03-22T13:30:48.182Z,97511.28
2023-03-22T13:33:28.008Z,97503.72
2023-03-22T13:36:00.773Z,97498.59
2023-03-22T13:38:34.205Z,97508.06
2023-03-22T13:41:07.945Z,97502.78
2023-03-22T13:43:48.033Z,97495.25
2023-03-22T13:46:51.350Z,97490.44
2023-03-22T13:49:49.520Z,97487.13
2023-03-22T13:52:40.234Z,97468.84
2023-03-22T13:55:43.002Z,97479.34
2023-03-22T13:58:38.973Z,97480.25
2023-03-22T14:01:17.557Z,97479.09
2023-03-22T14:03:52.398Z,97468.00
2023-03-22T14:06:28.699Z,97474.78
2023-03-22T14:09:06.719Z,97466.28
2023-03-22T14:11:45.527Z,97469.84
2023-03-22T14:14:23.979Z,97471.78
2023-03-22T14:17:01.178Z,97471.78
2023-03-22T14:19:36.383Z,97464.69
